메인 페이지
METAR-TAF:

METAR-TAF

공항 :

Piedras Negras, 멕시코

위도: 28-42N, 경도: 100-31W, 고도: 250m

현재 날씨관측

예보는 1 시간 16분 전, 21:40시(UTC)에 발표되었습니다.
동남동10kt
온도 33°C
습도 53%
기압 1018 hPa
시정: 8.0km
고도 3000ft 상공 구름 조금
고도 4000ft 상공 구름 보통

METAR: MMPG 142140Z 12010KT 5SM FEW030 SCT040 33/22 A3007 RMK 8/500 HZ

시각: 17:56 (22:56 UTC)

예보

예보는 5 시간 37분 전, 17:19시(UTC)에 발표되었습니다.
예보 대상 시간: 14일 18시부터 15일 18시까지 (UTC)
동남동10kt
시정: 8.0km
고도 2000ft 상공 구름 보통
고도 5000ft 상공 구름 많음
연무
14일 2100시부터 (UTC)
남동15kt
시정: 10km
고도 5000ft 상공 구름 많음
고도 10000ft 상공 구름 많음
15일 0300시부터 (UTC)
남남동10kt
시정: 10km
고도 5000ft 상공 구름 보통
고도 10000ft 상공 구름 많음
15일 1200시부터 (UTC)
동남동8kt
시정: 6.4km
고도 1500ft 상공 구름 보통
연무,

TAF: MMPG 141719Z 1418/1518 12010KT 5SM HZ SCT020 BKN050 FM142100 14015KT P6SM BKN050 BKN100 FM150300 16010KT P6SM SCT050 BKN100 FM151200 12008KT 4SM HZ SCT015

4,000개 이상의 공항 관측 자료 및 예보 (METAR 및 TAF 보고).

지도상에서 검색 가능한 기상관측소가 노란 점과 빨간 점으로 표시되어 있습니다.

기상관측소 명을 보려면 표시 위로 마우스를 이동하세요.

날씨 관측과 예보를 보려면 클릭하세요.

지도 변경 : 확대하려면 엑스 표시가 있는 녹색 버튼, 축소하려면 빼기 표시가 있는 녹색 버튼, 다음 페이지의 지도를 보려면 녹색 화살표를 클릭하세요.


METAR-TAF: